Jacksonville, North Carolina
Current Conditions -  °F | °C
As of 9:56 PM on Wednesday 22 Oct 2014 (Local Time) from KNCA Reporting Station
Overcast Overcast  
Wind Chill: 56°   Ceiling: 7000
Heat Index: 56°   Visibility: 10mi
Dew Point: 46°   Wind: 9mph
Humidity: 69%   Direction: 290°WNW
Pressure: 29.98"   Gusts: NA
Location:  34.75°N, 77.42°W
Report Text: KNCA 230156Z AUTO 29008KT 10SM OVC070 13/08 A2998 RMK AO2 SLP156 T01330078
Loading
Personal Weather Stations






























Interactive Weather Map New forecast layout! Learn more

10-Day Weather Forecast

Advertisements
Track Severe Weather on mobile